createdAt,value
2018-02-13T00:00:22.725Z,13.57
2018-02-13T00:02:55.244Z,11.27
2018-02-13T00:05:27.740Z,11.73
2018-02-13T00:08:00.270Z,11.13
2018-02-13T00:10:32.790Z,11.40
2018-02-13T00:13:05.302Z,10.40
2018-02-13T00:15:37.871Z,11.73
2018-02-13T00:18:10.375Z,11.57
2018-02-13T00:20:42.901Z,11.43
2018-02-13T00:23:16.336Z,12.60
2018-02-13T00:25:48.932Z,10.63
2018-02-13T00:28:21.429Z,11.00
2018-02-13T00:30:53.953Z,10.60
2018-02-13T00:33:26.455Z,13.07
2018-02-13T00:35:58.973Z,11.63
2018-02-13T00:38:31.471Z,11.47
2018-02-13T00:41:03.996Z,11.47
2018-02-13T00:43:36.551Z,10.60
2018-02-13T00:46:09.075Z,11.77
2018-02-13T00:48:41.583Z,10.83
2018-02-13T00:51:14.098Z,10.83
2018-02-13T00:53:46.604Z,11.50
2018-02-13T00:56:19.119Z,10.73
2018-02-13T00:58:51.618Z,11.43
2018-02-13T01:01:24.132Z,11.37
2018-02-13T01:03:57.265Z,11.67
2018-02-13T01:06:29.787Z,11.70
2018-02-13T01:09:02.299Z,12.60
2018-02-13T01:11:34.821Z,11.50
2018-02-13T01:14:07.332Z,11.63
2018-02-13T01:16:39.857Z,13.63
2018-02-13T01:19:12.352Z,12.53
2018-02-13T01:21:44.892Z,13.73
2018-02-13T01:24:17.388Z,13.43
2018-02-13T01:26:49.914Z,14.03
2018-02-13T01:29:22.414Z,14.37
2018-02-13T01:31:54.937Z,14.13
2018-02-13T01:34:27.446Z,14.47
2018-02-13T01:36:59.976Z,13.87
2018-02-13T01:39:32.476Z,13.67
2018-02-13T01:42:05.022Z,13.00
2018-02-13T01:44:37.523Z,14.07
2018-02-13T01:47:10.049Z,14.10
2018-02-13T01:49:42.555Z,14.23
2018-02-13T01:52:15.093Z,12.53
2018-02-13T01:54:48.429Z,17.13
2018-02-13T01:57:20.947Z,16.10
2018-02-13T01:59:53.441Z,15.60
2018-02-13T02:02:25.961Z,15.03
2018-02-13T02:04:58.491Z,15.63
2018-02-13T02:07:30.998Z,15.07
2018-02-13T02:10:03.503Z,15.90
2018-02-13T02:12:36.025Z,15.67
2018-02-13T02:15:08.706Z,16.37
2018-02-13T02:17:41.271Z,16.90
2018-02-13T02:20:13.796Z,15.73
2018-02-13T02:22:46.311Z,15.90
2018-02-13T02:25:18.830Z,17.10
2018-02-13T02:27:51.348Z,18.10
2018-02-13T02:30:23.842Z,16.03
2018-02-13T02:32:56.995Z,14.90
2018-02-13T02:35:29.556Z,16.90
2018-02-13T02:38:02.116Z,17.73
2018-02-13T02:40:34.620Z,16.70
2018-02-13T02:43:07.313Z,16.97
2018-02-13T02:45:39.807Z,18.00
2018-02-13T02:48:12.332Z,18.00
2018-02-13T02:50:44.830Z,17.13
2018-02-13T02:53:17.355Z,17.37
2018-02-13T02:55:49.861Z,17.13
2018-02-13T02:58:22.457Z,17.40
2018-02-13T03:00:54.953Z,17.83
2018-02-13T03:03:27.483Z,19.33
2018-02-13T03:05:59.982Z,18.87
2018-02-13T03:08:32.512Z,17.97
2018-02-13T03:11:05.034Z,19.20
2018-02-13T03:13:37.587Z,18.07
2018-02-13T03:16:10.113Z,17.33
2018-02-13T03:18:42.631Z,18.73
2018-02-13T03:21:15.131Z,18.87
2018-02-13T03:23:47.643Z,19.50
2018-02-13T03:26:20.157Z,18.80
2018-02-13T03:28:52.681Z,20.27
2018-02-13T03:31:26.321Z,19.70
2018-02-13T03:33:59.446Z,19.83
2018-02-13T03:36:31.946Z,20.20
2018-02-13T03:39:04.472Z,21.70
2018-02-13T03:41:36.978Z,19.40
2018-02-13T03:44:09.518Z,20.67
2018-02-13T03:46:42.032Z,18.63
2018-02-13T03:49:14.567Z,20.90
2018-02-13T03:51:47.139Z,21.13
2018-02-13T03:54:19.631Z,21.57
2018-02-13T03:56:52.144Z,24.30
2018-02-13T03:59:24.644Z,23.37
2018-02-13T04:01:57.171Z,21.13
2018-02-13T04:04:29.673Z,25.83
2018-02-13T04:07:02.245Z,22.60
2018-02-13T04:09:34.734Z,22.33
2018-02-13T04:12:07.260Z,21.77
2018-02-13T04:14:39.765Z,21.77
2018-02-13T04:17:12.310Z,23.17
2018-02-13T04:19:44.802Z,22.83
2018-02-13T04:22:17.342Z,22.07
2018-02-13T04:24:49.855Z,23.87
2018-02-13T04:27:22.388Z,25.27
2018-02-13T04:29:54.899Z,23.73
2018-02-13T04:32:27.413Z,22.93
2018-02-13T04:34:59.914Z,27.10
2018-02-13T04:37:32.441Z,23.10
2018-02-13T04:40:04.950Z,22.77
2018-02-13T04:42:37.477Z,24.90
2018-02-13T04:45:09.984Z,29.27
2018-02-13T04:47:42.509Z,23.53
2018-02-13T04:50:15.015Z,26.33
2018-02-13T04:52:47.547Z,26.47
2018-02-13T04:55:20.047Z,26.87
2018-02-13T04:57:52.569Z,31.87
2018-02-13T05:00:25.069Z,32.27
2018-02-13T05:02:57.591Z,27.13
2018-02-13T05:05:30.081Z,29.47
2018-02-13T05:08:02.604Z,33.07
2018-02-13T05:10:35.091Z,29.83
2018-02-13T05:13:07.611Z,28.27
2018-02-13T05:15:40.104Z,33.33
2018-02-13T05:18:12.632Z,31.40
2018-02-13T05:20:45.141Z,29.97
2018-02-13T05:23:17.644Z,27.60
2018-02-13T05:25:50.145Z,28.67
2018-02-13T05:28:22.676Z,27.77
2018-02-13T05:30:55.180Z,29.67
2018-02-13T05:33:27.691Z,27.87
2018-02-13T05:36:00.196Z,28.10
2018-02-13T05:38:32.709Z,31.67
2018-02-13T05:41:05.204Z,33.23
2018-02-13T05:43:37.743Z,36.67
2018-02-13T05:46:10.265Z,31.77
2018-02-13T05:48:42.772Z,34.37
2018-02-13T05:51:15.266Z,32.53
2018-02-13T05:53:47.785Z,33.67
2018-02-13T05:56:20.287Z,30.23
2018-02-13T05:58:52.810Z,30.23
2018-02-13T06:01:25.298Z,29.80
2018-02-13T06:03:57.815Z,30.40
2018-02-13T06:06:30.308Z,29.77
2018-02-13T06:09:02.837Z,28.80
2018-02-13T06:11:35.329Z,34.87
2018-02-13T06:14:07.844Z,30.50
2018-02-13T06:16:40.342Z,32.70
2018-02-13T06:19:12.863Z,31.57
2018-02-13T06:21:45.368Z,28.50
2018-02-13T06:24:17.904Z,31.17
2018-02-13T06:26:50.401Z,33.03
2018-02-13T06:29:22.927Z,34.37
2018-02-13T06:31:55.432Z,29.20
2018-02-13T06:34:28.007Z,30.20
2018-02-13T06:37:00.504Z,30.43
2018-02-13T06:39:33.020Z,31.23
2018-02-13T06:42:05.525Z,29.93
2018-02-13T06:44:38.311Z,32.57
2018-02-13T06:47:10.825Z,31.90
2018-02-13T06:49:43.348Z,29.60
2018-02-13T06:52:17.901Z,29.90
2018-02-13T06:54:50.415Z,30.23
2018-02-13T06:57:22.912Z,29.67
2018-02-13T06:59:55.427Z,28.87
2018-02-13T07:02:27.933Z,29.37
2018-02-13T07:05:00.450Z,29.97
2018-02-13T07:07:32.956Z,27.53
2018-02-13T07:10:05.471Z,29.67
2018-02-13T07:12:39.952Z,30.53
2018-02-13T07:15:12.467Z,31.77
2018-02-13T07:17:47.570Z,29.30
2018-02-13T07:20:20.096Z,28.03
2018-02-13T07:22:52.611Z,28.27
2018-02-13T07:25:25.184Z,29.20
2018-02-13T07:27:57.715Z,27.43
2018-02-13T07:30:31.247Z,27.30
2018-02-13T07:33:03.759Z,27.20
2018-02-13T07:35:36.273Z,26.83
2018-02-13T07:38:08.792Z,27.67
2018-02-13T07:40:41.294Z,29.17
2018-02-13T07:43:13.825Z,27.57
2018-02-13T07:45:46.334Z,27.37
2018-02-13T07:48:18.922Z,28.20
2018-02-13T07:50:51.433Z,25.60
2018-02-13T07:53:24.057Z,29.10
2018-02-13T07:55:56.557Z,27.03
2018-02-13T07:58:29.300Z,26.57
2018-02-13T08:01:01.818Z,27.10
2018-02-13T08:03:34.350Z,26.63
2018-02-13T08:06:06.970Z,29.23
2018-02-13T08:08:40.212Z,27.53
2018-02-13T08:11:12.790Z,26.47
2018-02-13T08:13:45.320Z,26.50
2018-02-13T08:16:18.209Z,25.60
2018-02-13T08:18:50.828Z,25.73
2018-02-13T08:21:25.518Z,26.20
2018-02-13T08:23:58.259Z,24.90
2018-02-13T08:26:30.773Z,25.43
2018-02-13T08:29:03.377Z,23.53
2018-02-13T08:31:35.894Z,22.53
2018-02-13T08:34:08.415Z,23.07
2018-02-13T08:36:40.919Z,24.07
2018-02-13T08:39:13.446Z,22.30
2018-02-13T08:41:45.973Z,22.17
2018-02-13T08:44:18.545Z,22.63
2018-02-13T08:46:51.097Z,23.73
2018-02-13T08:49:23.659Z,23.57
2018-02-13T08:51:56.567Z,22.57
2018-02-13T08:54:29.097Z,21.57
2018-02-13T08:57:01.652Z,20.30
2018-02-13T08:59:34.163Z,20.77
2018-02-13T09:02:06.663Z,21.53
2018-02-13T09:04:39.204Z,20.87
2018-02-13T09:07:11.753Z,19.67
2018-02-13T09:09:44.275Z,19.17
2018-02-13T09:12:16.776Z,18.87
2018-02-13T09:14:49.307Z,19.13
2018-02-13T09:17:21.807Z,19.87
2018-02-13T09:19:54.383Z,21.53
2018-02-13T09:22:26.878Z,19.07
2018-02-13T09:24:59.443Z,16.33
2018-02-13T09:27:31.968Z,18.47
2018-02-13T09:30:04.496Z,18.67
2018-02-13T09:32:37.000Z,18.77
2018-02-13T09:35:09.531Z,18.13
2018-02-13T09:37:42.055Z,16.77
2018-02-13T09:40:14.578Z,17.03
2018-02-13T09:42:47.090Z,16.13
2018-02-13T09:45:19.626Z,17.63
2018-02-13T09:47:52.129Z,16.90
2018-02-13T09:50:24.644Z,16.53
2018-02-13T09:52:57.137Z,16.90
2018-02-13T09:55:29.661Z,16.10
2018-02-13T09:58:02.162Z,15.73
2018-02-13T10:00:34.903Z,16.43
2018-02-13T10:03:07.620Z,15.87
2018-02-13T10:05:40.153Z,16.53
2018-02-13T10:08:12.644Z,15.57
2018-02-13T10:10:45.162Z,15.87
2018-02-13T10:13:17.670Z,15.27
2018-02-13T10:15:50.184Z,16.20
2018-02-13T10:18:22.699Z,15.67
2018-02-13T10:20:55.251Z,14.97
2018-02-13T10:23:27.758Z,15.17
2018-02-13T10:26:00.284Z,14.83
2018-02-13T10:28:32.795Z,13.33
2018-02-13T10:31:05.320Z,14.87
2018-02-13T10:33:37.844Z,14.30
2018-02-13T10:36:10.365Z,13.67
2018-02-13T10:38:42.863Z,12.87
2018-02-13T10:41:15.390Z,13.33
2018-02-13T10:43:47.874Z,13.53
2018-02-13T10:46:20.417Z,12.27
2018-02-13T10:48:52.925Z,12.00
2018-02-13T10:51:25.449Z,11.80
2018-02-13T10:53:57.944Z,11.40
2018-02-13T10:56:30.466Z,11.63
2018-02-13T10:59:02.988Z,11.77
2018-02-13T11:01:37.534Z,12.17
2018-02-13T11:04:10.063Z,11.13
2018-02-13T11:06:42.556Z,11.50
2018-02-13T11:09:15.075Z,12.50
2018-02-13T11:11:47.577Z,11.80
2018-02-13T11:14:20.086Z,11.50
2018-02-13T11:16:52.590Z,11.73
2018-02-13T11:19:25.123Z,11.23
2018-02-13T11:21:57.618Z,10.83
2018-02-13T11:24:30.134Z,10.40
2018-02-13T11:27:02.636Z,11.70
2018-02-13T11:29:35.171Z,9.13
2018-02-13T11:32:07.666Z,9.23
2018-02-13T11:34:40.185Z,8.20
2018-02-13T11:37:12.688Z,9.00
2018-02-13T11:39:45.207Z,7.47
2018-02-13T11:42:17.703Z,7.67
2018-02-13T11:44:50.272Z,7.60
2018-02-13T11:47:22.766Z,7.93
2018-02-13T11:49:55.284Z,7.17
2018-02-13T11:52:27.775Z,6.67
2018-02-13T11:55:00.287Z,7.33
2018-02-13T11:57:32.776Z,7.17
2018-02-13T12:00:05.294Z,6.83
2018-02-13T12:02:37.784Z,5.93
2018-02-13T12:05:10.300Z,6.23
2018-02-13T12:07:42.790Z,6.17
2018-02-13T12:10:15.301Z,5.47
2018-02-13T12:12:47.802Z,5.57
2018-02-13T12:15:20.330Z,5.17
2018-02-13T12:17:52.822Z,5.07
2018-02-13T12:20:25.339Z,4.70
2018-02-13T12:22:57.833Z,4.60
2018-02-13T12:25:42.204Z,5.47
2018-02-13T12:28:14.675Z,5.03
2018-02-13T12:30:47.213Z,4.47
2018-02-13T12:33:19.739Z,4.50
2018-02-13T12:35:52.251Z,4.13
2018-02-13T12:38:24.735Z,5.23
2018-02-13T12:40:57.250Z,5.00
2018-02-13T12:43:29.808Z,5.40
2018-02-13T12:46:02.305Z,4.33
2018-02-13T12:48:34.802Z,4.90
2018-02-13T12:51:07.327Z,4.40
2018-02-13T12:53:39.820Z,4.13
2018-02-13T12:56:12.333Z,4.80
2018-02-13T12:58:44.821Z,4.63
2018-02-13T13:01:17.327Z,4.43
2018-02-13T13:03:49.822Z,4.10
2018-02-13T13:06:22.332Z,3.50
2018-02-13T13:08:54.830Z,4.63
2018-02-13T13:11:27.341Z,3.90
2018-02-13T13:13:59.832Z,3.90
2018-02-13T13:16:32.353Z,4.47
2018-02-13T13:19:04.860Z,4.43
2018-02-13T13:21:37.372Z,4.10
2018-02-13T13:24:09.861Z,4.37
2018-02-13T13:26:42.363Z,4.03
2018-02-13T13:29:14.857Z,4.20
2018-02-13T13:31:47.373Z,4.43
2018-02-13T13:34:19.886Z,3.50
2018-02-13T13:36:52.391Z,3.60
2018-02-13T13:39:24.881Z,3.60
2018-02-13T13:41:57.413Z,4.23
2018-02-13T13:44:29.928Z,3.73
2018-02-13T13:47:02.451Z,3.20
2018-02-13T13:49:34.944Z,4.07
2018-02-13T13:52:07.464Z,3.37
2018-02-13T13:54:39.964Z,3.30
2018-02-13T13:57:12.486Z,3.20
2018-02-13T13:59:44.967Z,3.40
2018-02-13T14:02:17.468Z,3.50
2018-02-13T14:04:49.956Z,3.03
2018-02-13T14:07:22.519Z,3.50
2018-02-13T14:09:54.995Z,3.37
2018-02-13T14:12:27.521Z,3.70
2018-02-13T14:15:00.024Z,4.03
2018-02-13T14:17:34.296Z,3.13
2018-02-13T14:20:06.790Z,3.67
2018-02-13T14:22:40.494Z,3.83
2018-02-13T14:25:13.017Z,4.00
2018-02-13T14:27:45.514Z,3.50
2018-02-13T14:30:18.017Z,3.83
2018-02-13T14:32:50.504Z,3.70
2018-02-13T14:35:23.034Z,3.97
2018-02-13T14:37:55.516Z,3.60
2018-02-13T14:40:28.031Z,3.73
2018-02-13T14:43:00.518Z,3.57
2018-02-13T14:45:33.017Z,3.60
2018-02-13T14:48:05.615Z,4.20
2018-02-13T14:50:38.138Z,4.33
2018-02-13T14:53:10.623Z,4.27
2018-02-13T14:55:43.131Z,4.27
2018-02-13T14:58:16.062Z,4.43
2018-02-13T15:00:48.886Z,4.03
2018-02-13T15:03:21.394Z,3.87
2018-02-13T15:05:53.912Z,4.20
2018-02-13T15:08:26.411Z,3.80
2018-02-13T15:10:58.911Z,3.83
2018-02-13T15:13:31.401Z,4.07
2018-02-13T15:16:03.920Z,3.97
2018-02-13T15:18:36.471Z,3.80
2018-02-13T15:21:08.964Z,4.00
2018-02-13T15:23:41.455Z,3.70
2018-02-13T15:26:13.970Z,3.67
2018-02-13T15:28:46.502Z,3.73
2018-02-13T15:31:19.009Z,4.23
2018-02-13T15:33:51.494Z,4.17
2018-02-13T15:36:24.009Z,3.83
2018-02-13T15:38:56.523Z,3.73
2018-02-13T15:41:29.040Z,3.50
2018-02-13T15:44:01.536Z,4.17
2018-02-13T15:46:34.082Z,4.37
2018-02-13T15:49:06.577Z,4.47
2018-02-13T15:51:39.136Z,4.93
2018-02-13T15:54:11.682Z,4.33
2018-02-13T15:56:44.193Z,4.23
2018-02-13T15:59:16.705Z,4.97
2018-02-13T16:01:49.325Z,5.00
2018-02-13T16:04:21.817Z,4.57
2018-02-13T16:06:54.326Z,4.63
2018-02-13T16:09:26.885Z,4.70
2018-02-13T16:11:59.394Z,4.80
2018-02-13T16:14:31.885Z,4.80
2018-02-13T16:17:04.791Z,4.73
2018-02-13T16:19:37.366Z,4.57
2018-02-13T16:22:09.875Z,4.57
2018-02-13T16:24:42.636Z,4.50
2018-02-13T16:27:16.510Z,5.77
2018-02-13T16:29:49.372Z,6.07
2018-02-13T16:32:24.741Z,11.23
2018-02-13T16:34:57.249Z,13.00
2018-02-13T16:37:33.011Z,21.90
2018-02-13T16:40:06.080Z,23.10
2018-02-13T16:42:38.594Z,20.80
2018-02-13T16:45:14.652Z,17.57
2018-02-13T16:47:47.265Z,14.37
2018-02-13T16:50:19.850Z,9.93
2018-02-13T16:52:53.034Z,13.67
2018-02-13T16:55:27.783Z,13.60
2018-02-13T16:58:00.318Z,13.43
2018-02-13T17:00:37.691Z,25.47
2018-02-13T17:03:10.254Z,20.33
2018-02-13T17:05:42.791Z,10.90
2018-02-13T17:08:15.307Z,12.27
2018-02-13T17:10:47.816Z,8.63
2018-02-13T17:13:20.337Z,6.73
2018-02-13T17:15:52.857Z,7.10
2018-02-13T17:18:25.375Z,7.43
2018-02-13T17:20:57.866Z,6.80
2018-02-13T17:23:30.388Z,10.63
2018-02-13T17:26:02.878Z,10.03
2018-02-13T17:28:35.402Z,29.20
2018-02-13T17:31:07.902Z,21.10
2018-02-13T17:33:40.426Z,12.73
2018-02-13T17:36:12.917Z,9.67
2018-02-13T17:38:45.441Z,8.50
2018-02-13T17:41:17.975Z,9.03
2018-02-13T17:43:50.546Z,6.97
2018-02-13T17:46:23.096Z,7.87
2018-02-13T17:48:55.595Z,7.47
2018-02-13T17:51:28.135Z,6.53
2018-02-13T17:54:00.633Z,6.20
2018-02-13T17:59:11.949Z,6.50
2018-02-13T18:01:44.692Z,6.10
2018-02-13T18:04:17.200Z,6.43
2018-02-13T18:06:49.729Z,7.33
2018-02-13T18:09:22.237Z,8.50
2018-02-13T18:11:54.753Z,11.60
2018-02-13T18:14:27.301Z,10.10
2018-02-13T18:16:59.835Z,7.10
2018-02-13T18:19:32.335Z,7.87
2018-02-13T18:22:04.846Z,8.07
2018-02-13T18:24:37.348Z,7.17
2018-02-13T18:27:09.873Z,7.23
2018-02-13T18:29:42.364Z,7.07
2018-02-13T18:32:14.896Z,8.13
2018-02-13T18:34:47.410Z,7.63
2018-02-13T18:37:20.006Z,6.60
2018-02-13T18:39:52.506Z,7.00
2018-02-13T18:42:25.026Z,6.83
2018-02-13T18:44:57.525Z,7.33
2018-02-13T18:47:30.059Z,7.23
2018-02-13T18:50:02.572Z,18.50
2018-02-13T18:55:07.559Z,20.80
2018-02-13T18:57:40.080Z,15.43
2018-02-13T19:00:13.595Z,8.03
2018-02-13T19:02:46.109Z,8.37
2018-02-13T19:05:18.994Z,10.30
2018-02-13T19:07:57.858Z,8.40
2018-02-13T19:10:31.023Z,10.23
2018-02-13T19:13:03.602Z,10.80
2018-02-13T19:15:36.112Z,9.77
2018-02-13T19:18:08.712Z,9.33
2018-02-13T19:20:41.238Z,10.93
2018-02-13T19:23:13.794Z,12.90
2018-02-13T19:25:46.284Z,23.73
2018-02-13T19:28:18.811Z,22.57
2018-02-13T19:30:51.305Z,25.67
2018-02-13T19:33:23.832Z,28.17
2018-02-13T19:35:56.333Z,25.23
2018-02-13T19:38:28.849Z,23.03
2018-02-13T19:41:01.357Z,17.80
2018-02-13T19:43:33.867Z,10.53
2018-02-13T19:46:06.440Z,10.60
2018-02-13T19:48:38.964Z,11.00
2018-02-13T19:51:11.545Z,13.13
2018-02-13T19:53:44.073Z,10.90
2018-02-13T19:56:16.582Z,11.33
2018-02-13T19:58:49.105Z,9.13
2018-02-13T20:01:21.625Z,9.00
2018-02-13T20:03:54.151Z,10.80
2018-02-13T20:06:26.646Z,12.93
2018-02-13T20:08:59.166Z,16.13
2018-02-13T20:11:31.685Z,13.67
2018-02-13T20:14:04.212Z,15.93
2018-02-13T20:16:36.722Z,17.37
2018-02-13T20:19:09.869Z,14.20
2018-02-13T20:21:42.377Z,11.73
2018-02-13T20:24:15.947Z,12.47
2018-02-13T20:26:48.840Z,8.37
2018-02-13T20:29:21.353Z,9.27
2018-02-13T20:31:53.878Z,8.90
2018-02-13T20:34:28.356Z,9.43
2018-02-13T20:37:00.924Z,9.63
2018-02-13T20:39:33.724Z,8.83
2018-02-13T20:42:06.256Z,7.17
2018-02-13T20:44:38.778Z,7.70
2018-02-13T20:47:11.277Z,7.40
2018-02-13T20:49:43.796Z,8.47
2018-02-13T20:52:16.287Z,8.77
2018-02-13T20:54:51.282Z,8.40
2018-02-13T20:57:25.576Z,8.77
2018-02-13T21:00:01.451Z,10.20
2018-02-13T21:02:34.054Z,9.70
2018-02-13T21:05:06.608Z,9.47
2018-02-13T21:07:41.276Z,8.30
2018-02-13T21:10:22.275Z,8.30
2018-02-13T21:12:58.603Z,7.23
2018-02-13T21:15:31.230Z,7.13
2018-02-13T21:18:04.051Z,7.17
2018-02-13T21:20:36.549Z,7.13
2018-02-13T21:23:09.091Z,7.87
2018-02-13T21:25:41.593Z,7.80
2018-02-13T21:28:14.114Z,8.80
2018-02-13T21:30:46.613Z,8.17
2018-02-13T21:33:19.171Z,7.60
2018-02-13T21:35:51.695Z,7.93
2018-02-13T21:38:24.216Z,8.97
2018-02-13T21:40:56.722Z,8.63
2018-02-13T21:43:29.407Z,10.47
2018-02-13T21:46:01.906Z,11.53
2018-02-13T21:48:34.453Z,12.07
2018-02-13T21:51:06.986Z,11.53
2018-02-13T21:53:39.568Z,10.80
2018-02-13T21:56:12.059Z,9.97
2018-02-13T21:58:44.589Z,9.60
2018-02-13T22:01:17.162Z,8.97
2018-02-13T22:03:49.683Z,8.80
2018-02-13T22:06:22.175Z,9.73
2018-02-13T22:08:54.686Z,9.20
2018-02-13T22:11:27.248Z,8.90
2018-02-13T22:13:59.790Z,9.27
2018-02-13T22:16:32.293Z,8.33
2018-02-13T22:19:04.816Z,9.10
2018-02-13T22:21:37.305Z,10.90
2018-02-13T22:24:09.823Z,8.77
2018-02-13T22:26:43.447Z,9.73
2018-02-13T22:29:16.683Z,9.57
2018-02-13T22:31:49.277Z,9.60
2018-02-13T22:34:21.807Z,10.17
2018-02-13T22:36:54.311Z,9.20
2018-02-13T22:39:26.827Z,8.77
2018-02-13T22:41:59.332Z,8.10
2018-02-13T22:44:32.527Z,8.63
2018-02-13T22:47:06.496Z,8.53
2018-02-13T22:49:39.876Z,8.80
2018-02-13T22:52:12.377Z,8.43
2018-02-13T22:54:44.904Z,7.67
2018-02-13T22:57:17.392Z,8.40
2018-02-13T22:59:49.917Z,8.90
2018-02-13T23:02:22.420Z,8.80
2018-02-13T23:04:54.995Z,7.87
2018-02-13T23:07:27.479Z,8.43
2018-02-13T23:09:59.997Z,8.57
2018-02-13T23:12:32.493Z,9.03
2018-02-13T23:15:05.000Z,13.47
2018-02-13T23:17:37.500Z,11.87
2018-02-13T23:20:10.032Z,11.00
2018-02-13T23:22:42.547Z,11.80
2018-02-13T23:25:15.074Z,10.80
2018-02-13T23:27:47.594Z,9.90
2018-02-13T23:30:20.108Z,9.00
2018-02-13T23:32:52.632Z,8.00
2018-02-13T23:35:25.156Z,9.13
2018-02-13T23:37:57.688Z,8.70
2018-02-13T23:40:30.206Z,9.40
2018-02-13T23:43:02.714Z,8.63
2018-02-13T23:45:35.229Z,9.60
2018-02-13T23:48:07.732Z,8.47
2018-02-13T23:50:40.235Z,8.07
2018-02-13T23:53:12.752Z,8.97
2018-02-13T23:55:45.276Z,8.03
2018-02-13T23:58:17.798Z,8.87
